sensor_id;sensor_type;location;lat;lon;timestamp;temperature;humidity
1786;DHT22;890;48.158;11.540;2022-12-29T00:01:56;6.90;65.40
1786;DHT22;890;48.158;11.540;2022-12-29T00:04:22;6.90;65.30
1786;DHT22;890;48.158;11.540;2022-12-29T00:06:47;7.00;65.10
1786;DHT22;890;48.158;11.540;2022-12-29T00:09:15;6.90;64.90
1786;DHT22;890;48.158;11.540;2022-12-29T00:11:41;6.90;64.70
1786;DHT22;890;48.158;11.540;2022-12-29T00:14:09;7.00;64.50
1786;DHT22;890;48.158;11.540;2022-12-29T00:16:54;7.00;64.30
1786;DHT22;890;48.158;11.540;2022-12-29T00:19:20;7.00;64.30
1786;DHT22;890;48.158;11.540;2022-12-29T00:22:04;7.00;64.10
1786;DHT22;890;48.158;11.540;2022-12-29T00:24:49;7.00;64.00
1786;DHT22;890;48.158;11.540;2022-12-29T00:27:27;7.00;63.90
1786;DHT22;890;48.158;11.540;2022-12-29T00:30:19;7.00;63.80
1786;DHT22;890;48.158;11.540;2022-12-29T00:33:15;7.00;63.40
1786;DHT22;890;48.158;11.540;2022-12-29T00:36:31;7.00;63.20
1786;DHT22;890;48.158;11.540;2022-12-29T00:39:01;7.10;63.10
1786;DHT22;890;48.158;11.540;2022-12-29T00:41:47;7.10;63.30
1786;DHT22;890;48.158;11.540;2022-12-29T00:44:32;7.20;63.20
1786;DHT22;890;48.158;11.540;2022-12-29T00:46:57;7.20;63.00
1786;DHT22;890;48.158;11.540;2022-12-29T00:49:27;7.20;62.80
1786;DHT22;890;48.158;11.540;2022-12-29T00:51:58;7.20;62.70
1786;DHT22;890;48.158;11.540;2022-12-29T00:54:24;7.20;62.70
1786;DHT22;890;48.158;11.540;2022-12-29T00:56:51;7.20;62.60
1786;DHT22;890;48.158;11.540;2022-12-29T00:59:18;7.10;62.20
1786;DHT22;890;48.158;11.540;2022-12-29T01:01:44;7.10;62.30
1786;DHT22;890;48.158;11.540;2022-12-29T01:04:10;8.70;63.70
1786;DHT22;890;48.158;11.540;2022-12-29T01:06:40;7.10;62.20
1786;DHT22;890;48.158;11.540;2022-12-29T01:09:06;7.10;62.10
1786;DHT22;890;48.158;11.540;2022-12-29T01:11:50;7.00;62.00
1786;DHT22;890;48.158;11.540;2022-12-29T01:14:17;7.00;62.00
1786;DHT22;890;48.158;11.540;2022-12-29T01:16:43;7.00;62.00
1786;DHT22;890;48.158;11.540;2022-12-29T01:19:09;5.50;60.60
1786;DHT22;890;48.158;11.540;2022-12-29T01:21:35;7.00;61.90
1786;DHT22;890;48.158;11.540;2022-12-29T01:24:01;7.00;61.90
1786;DHT22;890;48.158;11.540;2022-12-29T01:26:26;7.00;61.70
1786;DHT22;890;48.158;11.540;2022-12-29T01:28:52;7.10;61.80
1786;DHT22;890;48.158;11.540;2022-12-29T01:31:17;7.00;61.60
1786;DHT22;890;48.158;11.540;2022-12-29T01:33:43;7.00;61.70
1786;DHT22;890;48.158;11.540;2022-12-29T01:36:14;7.00;61.70
1786;DHT22;890;48.158;11.540;2022-12-29T01:38:40;8.30;62.80
1786;DHT22;890;48.158;11.540;2022-12-29T01:41:07;7.00;61.80
1786;DHT22;890;48.158;11.540;2022-12-29T01:49:14;6.90;61.30
1786;DHT22;890;48.158;11.540;2022-12-29T01:51:44;6.90;61.40
1786;DHT22;890;48.158;11.540;2022-12-29T01:54:18;7.00;61.60
1786;DHT22;890;48.158;11.540;2022-12-29T01:56:45;7.00;61.40
1786;DHT22;890;48.158;11.540;2022-12-29T01:59:15;7.10;61.30
1786;DHT22;890;48.158;11.540;2022-12-29T02:01:43;7.00;61.00
1786;DHT22;890;48.158;11.540;2022-12-29T02:04:11;7.10;60.90
1786;DHT22;890;48.158;11.540;2022-12-29T02:06:42;7.10;60.80
1786;DHT22;890;48.158;11.540;2022-12-29T02:09:10;7.10;60.70
1786;DHT22;890;48.158;11.540;2022-12-29T02:11:36;7.10;60.70
1786;DHT22;890;48.158;11.540;2022-12-29T02:14:11;7.10;60.60
1786;DHT22;890;48.158;11.540;2022-12-29T02:32:56;7.00;59.90
1786;DHT22;890;48.158;11.540;2022-12-29T02:40:58;7.20;60.10
1786;DHT22;890;48.158;11.540;2022-12-29T02:43:26;7.10;60.00
1786;DHT22;890;48.158;11.540;2022-12-29T02:46:33;7.30;59.90
1786;DHT22;890;48.158;11.540;2022-12-29T02:49:13;7.20;59.30
1786;DHT22;890;48.158;11.540;2022-12-29T02:52:23;7.20;59.30
1786;DHT22;890;48.158;11.540;2022-12-29T02:54:49;7.20;59.20
1786;DHT22;890;48.158;11.540;2022-12-29T03:00:07;7.40;59.00
1786;DHT22;890;48.158;11.540;2022-12-29T03:03:05;7.40;59.10
1786;DHT22;890;48.158;11.540;2022-12-29T03:05:56;7.40;58.90
1786;DHT22;890;48.158;11.540;2022-12-29T03:08:44;7.40;58.70
1786;DHT22;890;48.158;11.540;2022-12-29T03:11:13;7.50;58.80
1786;DHT22;890;48.158;11.540;2022-12-29T03:14:32;7.60;58.70
1786;DHT22;890;48.158;11.540;2022-12-29T03:17:27;7.50;58.20
1786;DHT22;890;48.158;11.540;2022-12-29T03:20:01;7.50;58.20
1786;DHT22;890;48.158;11.540;2022-12-29T03:22:30;7.60;58.20
1786;DHT22;890;48.158;11.540;2022-12-29T03:25:18;7.70;58.40
1786;DHT22;890;48.158;11.540;2022-12-29T03:27:50;7.70;58.10
1786;DHT22;890;48.158;11.540;2022-12-29T03:30:18;7.70;58.40
1786;DHT22;890;48.158;11.540;2022-12-29T03:32:47;7.80;58.40
1786;DHT22;890;48.158;11.540;2022-12-29T03:35:16;7.80;58.20
1786;DHT22;890;48.158;11.540;2022-12-29T03:37:53;7.80;58.00
1786;DHT22;890;48.158;11.540;2022-12-29T03:40:21;7.90;57.90
1786;DHT22;890;48.158;11.540;2022-12-29T03:42:48;7.90;57.90
1786;DHT22;890;48.158;11.540;2022-12-29T03:45:14;8.00;57.90
1786;DHT22;890;48.158;11.540;2022-12-29T03:47:39;8.10;57.90
1786;DHT22;890;48.158;11.540;2022-12-29T03:50:05;8.00;57.70
1786;DHT22;890;48.158;11.540;2022-12-29T03:52:31;8.10;57.70
1786;DHT22;890;48.158;11.540;2022-12-29T03:54:57;8.10;57.60
1786;DHT22;890;48.158;11.540;2022-12-29T03:57:22;8.10;57.50
1786;DHT22;890;48.158;11.540;2022-12-29T03:59:48;8.10;57.50
1786;DHT22;890;48.158;11.540;2022-12-29T04:02:14;8.20;57.40
1786;DHT22;890;48.158;11.540;2022-12-29T04:04:39;8.20;57.30
1786;DHT22;890;48.158;11.540;2022-12-29T04:07:05;8.20;57.10
1786;DHT22;890;48.158;11.540;2022-12-29T04:09:30;8.20;57.10
1786;DHT22;890;48.158;11.540;2022-12-29T04:11:56;8.10;57.00
1786;DHT22;890;48.158;11.540;2022-12-29T04:14:22;8.10;56.90
1786;DHT22;890;48.158;11.540;2022-12-29T04:16:47;8.10;56.90
1786;DHT22;890;48.158;11.540;2022-12-29T04:19:13;8.10;56.90
1786;DHT22;890;48.158;11.540;2022-12-29T04:21:39;8.10;56.70
1786;DHT22;890;48.158;11.540;2022-12-29T04:24:05;8.20;56.80
1786;DHT22;890;48.158;11.540;2022-12-29T04:26:32;8.20;56.80
1786;DHT22;890;48.158;11.540;2022-12-29T04:28:58;8.20;56.70
1786;DHT22;890;48.158;11.540;2022-12-29T04:31:23;8.20;56.60
1786;DHT22;890;48.158;11.540;2022-12-29T04:33:49;8.30;56.50
1786;DHT22;890;48.158;11.540;2022-12-29T04:36:15;8.20;56.40
1786;DHT22;890;48.158;11.540;2022-12-29T04:38:40;8.20;56.30
1786;DHT22;890;48.158;11.540;2022-12-29T04:41:06;8.20;56.90
1786;DHT22;890;48.158;11.540;2022-12-29T04:43:31;8.20;56.30
1786;DHT22;890;48.158;11.540;2022-12-29T04:45:57;8.20;56.20
1786;DHT22;890;48.158;11.540;2022-12-29T04:48:23;8.30;56.30
1786;DHT22;890;48.158;11.540;2022-12-29T04:50:49;8.30;56.20
1786;DHT22;890;48.158;11.540;2022-12-29T04:53:15;8.20;56.30
1786;DHT22;890;48.158;11.540;2022-12-29T04:55:41;8.30;56.20
1786;DHT22;890;48.158;11.540;2022-12-29T04:58:07;8.30;56.00
1786;DHT22;890;48.158;11.540;2022-12-29T05:00:32;8.30;55.90
1786;DHT22;890;48.158;11.540;2022-12-29T05:02:58;8.20;55.70
1786;DHT22;890;48.158;11.540;2022-12-29T05:05:24;8.30;55.90
1786;DHT22;890;48.158;11.540;2022-12-29T05:07:50;8.30;56.00
1786;DHT22;890;48.158;11.540;2022-12-29T05:10:16;8.30;55.90
1786;DHT22;890;48.158;11.540;2022-12-29T05:12:42;8.30;55.90
1786;DHT22;890;48.158;11.540;2022-12-29T05:15:09;8.30;55.80
1786;DHT22;890;48.158;11.540;2022-12-29T05:17:35;8.30;55.70
1786;DHT22;890;48.158;11.540;2022-12-29T05:20:01;8.30;55.80
1786;DHT22;890;48.158;11.540;2022-12-29T05:22:26;8.30;55.70
1786;DHT22;890;48.158;11.540;2022-12-29T05:24:52;8.20;55.60
1786;DHT22;890;48.158;11.540;2022-12-29T05:27:17;8.30;55.70
1786;DHT22;890;48.158;11.540;2022-12-29T05:29:43;8.30;55.80
1786;DHT22;890;48.158;11.540;2022-12-29T05:32:09;8.30;55.70
1786;DHT22;890;48.158;11.540;2022-12-29T05:34:34;8.40;55.80
1786;DHT22;890;48.158;11.540;2022-12-29T05:37:00;8.40;55.60
1786;DHT22;890;48.158;11.540;2022-12-29T05:39:26;8.50;55.60
1786;DHT22;890;48.158;11.540;2022-12-29T05:41:52;8.40;55.60
1786;DHT22;890;48.158;11.540;2022-12-29T05:44:17;8.50;55.70
1786;DHT22;890;48.158;11.540;2022-12-29T05:46:43;8.50;55.50
1786;DHT22;890;48.158;11.540;2022-12-29T05:49:08;8.50;55.40
1786;DHT22;890;48.158;11.540;2022-12-29T05:51:34;8.50;55.30
1786;DHT22;890;48.158;11.540;2022-12-29T05:53:59;8.50;55.20
1786;DHT22;890;48.158;11.540;2022-12-29T05:56:25;8.50;55.10
1786;DHT22;890;48.158;11.540;2022-12-29T05:58:51;8.50;55.20
1786;DHT22;890;48.158;11.540;2022-12-29T06:01:16;8.60;55.10
1786;DHT22;890;48.158;11.540;2022-12-29T06:03:42;8.50;55.10
1786;DHT22;890;48.158;11.540;2022-12-29T06:06:07;8.50;55.00
1786;DHT22;890;48.158;11.540;2022-12-29T06:08:33;8.50;55.00
1786;DHT22;890;48.158;11.540;2022-12-29T06:10:59;8.50;55.00
1786;DHT22;890;48.158;11.540;2022-12-29T06:13:24;8.50;55.00
1786;DHT22;890;48.158;11.540;2022-12-29T06:15:50;8.50;55.00
1786;DHT22;890;48.158;11.540;2022-12-29T06:18:16;8.60;55.00
1786;DHT22;890;48.158;11.540;2022-12-29T06:20:42;8.60;55.00
1786;DHT22;890;48.158;11.540;2022-12-29T06:23:07;8.60;55.00
1786;DHT22;890;48.158;11.540;2022-12-29T06:25:33;8.60;54.90
1786;DHT22;890;48.158;11.540;2022-12-29T06:27:59;8.60;54.80
1786;DHT22;890;48.158;11.540;2022-12-29T06:30:25;8.70;54.90
1786;DHT22;890;48.158;11.540;2022-12-29T06:32:50;8.70;54.90
1786;DHT22;890;48.158;11.540;2022-12-29T06:35:16;8.70;54.80
1786;DHT22;890;48.158;11.540;2022-12-29T06:37:42;7.70;54.00
1786;DHT22;890;48.158;11.540;2022-12-29T06:40:09;8.70;54.80
1786;DHT22;890;48.158;11.540;2022-12-29T06:42:34;8.70;54.70
1786;DHT22;890;48.158;11.540;2022-12-29T06:45:01;8.60;54.70
1786;DHT22;890;48.158;11.540;2022-12-29T06:47:26;8.60;54.70
1786;DHT22;890;48.158;11.540;2022-12-29T06:49:52;8.60;54.80
1786;DHT22;890;48.158;11.540;2022-12-29T06:52:17;8.60;54.80
1786;DHT22;890;48.158;11.540;2022-12-29T06:54:43;8.60;54.90
1786;DHT22;890;48.158;11.540;2022-12-29T06:57:09;8.60;55.00
1786;DHT22;890;48.158;11.540;2022-12-29T06:59:34;8.50;54.90
1786;DHT22;890;48.158;11.540;2022-12-29T07:02:00;8.50;55.50
1786;DHT22;890;48.158;11.540;2022-12-29T07:04:27;8.50;55.00
1786;DHT22;890;48.158;11.540;2022-12-29T07:06:54;8.50;55.00
1786;DHT22;890;48.158;11.540;2022-12-29T07:09:20;8.40;54.90
1786;DHT22;890;48.158;11.540;2022-12-29T07:11:45;9.80;55.90
1786;DHT22;890;48.158;11.540;2022-12-29T07:14:11;9.80;56.10
1786;DHT22;890;48.158;11.540;2022-12-29T07:16:37;8.40;54.80
1786;DHT22;890;48.158;11.540;2022-12-29T07:19:03;8.50;54.70
1786;DHT22;890;48.158;11.540;2022-12-29T07:21:29;8.60;54.80
1786;DHT22;890;48.158;11.540;2022-12-29T07:23:55;8.60;54.60
1786;DHT22;890;48.158;11.540;2022-12-29T07:26:20;8.70;54.50
1786;DHT22;890;48.158;11.540;2022-12-29T07:28:46;8.70;54.40
1786;DHT22;890;48.158;11.540;2022-12-29T07:31:18;8.70;54.30
1786;DHT22;890;48.158;11.540;2022-12-29T07:33:44;8.70;54.10
1786;DHT22;890;48.158;11.540;2022-12-29T07:36:10;8.00;53.60
1786;DHT22;890;48.158;11.540;2022-12-29T07:38:36;10.20;54.30
1786;DHT22;890;48.158;11.540;2022-12-29T07:41:02;8.90;54.10
1786;DHT22;890;48.158;11.540;2022-12-29T07:43:27;8.90;54.10
1786;DHT22;890;48.158;11.540;2022-12-29T07:45:53;9.00;54.00
1786;DHT22;890;48.158;11.540;2022-12-29T07:48:19;9.00;54.00
1786;DHT22;890;48.158;11.540;2022-12-29T07:50:44;9.50;54.20
1786;DHT22;890;48.158;11.540;2022-12-29T07:53:10;9.00;53.70
1786;DHT22;890;48.158;11.540;2022-12-29T07:55:36;9.00;53.70
1786;DHT22;890;48.158;11.540;2022-12-29T07:58:01;9.10;53.90
1786;DHT22;890;48.158;11.540;2022-12-29T08:00:27;9.20;54.40
1786;DHT22;890;48.158;11.540;2022-12-29T08:02:52;9.20;53.80
1786;DHT22;890;48.158;11.540;2022-12-29T08:05:18;9.30;53.70
1786;DHT22;890;48.158;11.540;2022-12-29T08:07:44;9.30;53.60
1786;DHT22;890;48.158;11.540;2022-12-29T08:10:10;9.30;53.40
1786;DHT22;890;48.158;11.540;2022-12-29T08:12:41;9.40;53.30
1786;DHT22;890;48.158;11.540;2022-12-29T08:15:12;9.30;53.00
1786;DHT22;890;48.158;11.540;2022-12-29T08:17:38;10.60;52.90
1786;DHT22;890;48.158;11.540;2022-12-29T08:20:04;9.40;52.70
1786;DHT22;890;48.158;11.540;2022-12-29T08:22:30;9.40;52.80
1786;DHT22;890;48.158;11.540;2022-12-29T08:24:56;9.40;52.70
1786;DHT22;890;48.158;11.540;2022-12-29T08:27:24;9.40;52.60
1786;DHT22;890;48.158;11.540;2022-12-29T08:29:50;9.80;52.80
1786;DHT22;890;48.158;11.540;2022-12-29T08:32:16;9.60;52.50
1786;DHT22;890;48.158;11.540;2022-12-29T08:34:45;9.60;52.40
1786;DHT22;890;48.158;11.540;2022-12-29T08:37:14;9.60;52.40
1786;DHT22;890;48.158;11.540;2022-12-29T08:39:39;9.60;52.30
1786;DHT22;890;48.158;11.540;2022-12-29T08:42:05;11.00;52.50
1786;DHT22;890;48.158;11.540;2022-12-29T08:44:34;9.90;52.30
1786;DHT22;890;48.158;11.540;2022-12-29T08:46:59;10.00;51.30
1786;DHT22;890;48.158;11.540;2022-12-29T08:49:25;10.10;51.00
1786;DHT22;890;48.158;11.540;2022-12-29T08:51:50;10.10;50.90
1786;DHT22;890;48.158;11.540;2022-12-29T08:54:16;10.20;51.10
1786;DHT22;890;48.158;11.540;2022-12-29T08:56:41;10.20;51.10
1786;DHT22;890;48.158;11.540;2022-12-29T08:59:07;10.30;50.90
1786;DHT22;890;48.158;11.540;2022-12-29T09:01:33;10.30;50.80
1786;DHT22;890;48.158;11.540;2022-12-29T09:04:01;10.40;50.80
1786;DHT22;890;48.158;11.540;2022-12-29T09:06:27;10.50;50.50
1786;DHT22;890;48.158;11.540;2022-12-29T09:08:54;10.60;50.30
1786;DHT22;890;48.158;11.540;2022-12-29T09:11:21;10.60;50.00
1786;DHT22;890;48.158;11.540;2022-12-29T09:13:47;10.80;50.00
1786;DHT22;890;48.158;11.540;2022-12-29T09:16:13;10.90;49.80
1786;DHT22;890;48.158;11.540;2022-12-29T09:18:39;10.90;49.50
1786;DHT22;890;48.158;11.540;2022-12-29T09:21:09;11.00;49.50
1786;DHT22;890;48.158;11.540;2022-12-29T09:23:35;11.00;49.40
1786;DHT22;890;48.158;11.540;2022-12-29T09:26:01;11.00;49.40
1786;DHT22;890;48.158;11.540;2022-12-29T09:28:27;11.10;49.30
1786;DHT22;890;48.158;11.540;2022-12-29T09:30:55;11.10;49.40
1786;DHT22;890;48.158;11.540;2022-12-29T09:33:21;11.20;49.40
1786;DHT22;890;48.158;11.540;2022-12-29T09:35:51;11.20;49.50
1786;DHT22;890;48.158;11.540;2022-12-29T09:38:17;11.30;49.30
1786;DHT22;890;48.158;11.540;2022-12-29T09:40:46;11.50;49.50
1786;DHT22;890;48.158;11.540;2022-12-29T09:43:24;11.60;49.40
1786;DHT22;890;48.158;11.540;2022-12-29T09:48:51;11.70;48.80
1786;DHT22;890;48.158;11.540;2022-12-29T09:51:21;11.80;48.70
1786;DHT22;890;48.158;11.540;2022-12-29T09:53:58;11.90;48.60
1786;DHT22;890;48.158;11.540;2022-12-29T09:56:26;11.80;48.10
1786;DHT22;890;48.158;11.540;2022-12-29T09:59:02;11.80;48.10
1786;DHT22;890;48.158;11.540;2022-12-29T10:01:40;11.70;47.90
1786;DHT22;890;48.158;11.540;2022-12-29T10:04:07;11.60;48.00
1786;DHT22;890;48.158;11.540;2022-12-29T10:09:22;11.60;48.00
1786;DHT22;890;48.158;11.540;2022-12-29T10:14:50;11.50;48.20
1786;DHT22;890;48.158;11.540;2022-12-29T10:17:27;11.50;48.30
1786;DHT22;890;48.158;11.540;2022-12-29T10:22:54;11.70;48.20
1786;DHT22;890;48.158;11.540;2022-12-29T10:25:25;11.70;48.20
1786;DHT22;890;48.158;11.540;2022-12-29T10:27:52;11.70;48.10
1786;DHT22;890;48.158;11.540;2022-12-29T10:30:19;11.80;48.10
1786;DHT22;890;48.158;11.540;2022-12-29T10:35:20;11.90;48.00
1786;DHT22;890;48.158;11.540;2022-12-29T10:37:54;12.00;48.10
1786;DHT22;890;48.158;11.540;2022-12-29T10:40:54;12.20;48.10
1786;DHT22;890;48.158;11.540;2022-12-29T10:45:43;12.30;47.90
1786;DHT22;890;48.158;11.540;2022-12-29T10:48:16;12.30;47.60
1786;DHT22;890;48.158;11.540;2022-12-29T10:50:44;12.40;47.70
1786;DHT22;890;48.158;11.540;2022-12-29T10:53:22;12.50;47.90
1786;DHT22;890;48.158;11.540;2022-12-29T10:55:49;12.50;47.60
1786;DHT22;890;48.158;11.540;2022-12-29T10:58:15;12.60;47.60
1786;DHT22;890;48.158;11.540;2022-12-29T11:00:43;12.70;48.00
1786;DHT22;890;48.158;11.540;2022-12-29T11:06:11;13.00;47.40
1786;DHT22;890;48.158;11.540;2022-12-29T11:08:49;13.20;47.70
1786;DHT22;890;48.158;11.540;2022-12-29T11:11:24;13.30;47.50
1786;DHT22;890;48.158;11.540;2022-12-29T11:13:57;13.40;46.90
1786;DHT22;890;48.158;11.540;2022-12-29T11:16:32;13.40;47.00
1786;DHT22;890;48.158;11.540;2022-12-29T11:18:59;13.50;46.90
1786;DHT22;890;48.158;11.540;2022-12-29T11:21:37;13.80;47.50
1786;DHT22;890;48.158;11.540;2022-12-29T11:24:28;14.00;47.50
1786;DHT22;890;48.158;11.540;2022-12-29T11:27:19;14.30;47.20
1786;DHT22;890;48.158;11.540;2022-12-29T11:29:48;14.60;46.60
1786;DHT22;890;48.158;11.540;2022-12-29T11:34:45;15.30;47.00
1786;DHT22;890;48.158;11.540;2022-12-29T11:40:00;15.80;47.50
1786;DHT22;890;48.158;11.540;2022-12-29T11:42:36;16.50;48.80
1786;DHT22;890;48.158;11.540;2022-12-29T11:45:09;16.80;47.30
1786;DHT22;890;48.158;11.540;2022-12-29T11:47:43;17.00;45.50
1786;DHT22;890;48.158;11.540;2022-12-29T11:50:18;16.80;43.80
1786;DHT22;890;48.158;11.540;2022-12-29T11:52:45;16.70;44.20
1786;DHT22;890;48.158;11.540;2022-12-29T11:55:20;16.90;46.30
1786;DHT22;890;48.158;11.540;2022-12-29T11:57:47;17.30;47.10
1786;DHT22;890;48.158;11.540;2022-12-29T12:00:18;17.70;46.80
1786;DHT22;890;48.158;11.540;2022-12-29T12:02:58;17.90;44.40
1786;DHT22;890;48.158;11.540;2022-12-29T12:05:33;17.80;42.70
1786;DHT22;890;48.158;11.540;2022-12-29T12:08:17;17.80;42.50
1786;DHT22;890;48.158;11.540;2022-12-29T12:10:53;18.00;42.00
1786;DHT22;890;48.158;11.540;2022-12-29T12:16:11;17.90;39.90
1786;DHT22;890;48.158;11.540;2022-12-29T12:18:47;17.60;39.30
1786;DHT22;890;48.158;11.540;2022-12-29T12:21:23;17.10;38.20
1786;DHT22;890;48.158;11.540;2022-12-29T12:26:29;16.30;38.30
1786;DHT22;890;48.158;11.540;2022-12-29T12:29:13;15.80;38.80
1786;DHT22;890;48.158;11.540;2022-12-29T12:32:06;15.70;39.50
1786;DHT22;890;48.158;11.540;2022-12-29T12:34:42;15.50;39.60
1786;DHT22;890;48.158;11.540;2022-12-29T12:45:34;15.00;40.20
1786;DHT22;890;48.158;11.540;2022-12-29T12:48:15;14.80;40.50
1786;DHT22;890;48.158;11.540;2022-12-29T12:50:49;14.70;40.70
1786;DHT22;890;48.158;11.540;2022-12-29T12:53:33;14.70;41.20
1786;DHT22;890;48.158;11.540;2022-12-29T13:01:41;14.50;42.70
1786;DHT22;890;48.158;11.540;2022-12-29T13:07:17;14.50;43.10
1786;DHT22;890;48.158;11.540;2022-12-29T13:10:25;14.40;43.40
1786;DHT22;890;48.158;11.540;2022-12-29T13:13:18;14.40;43.60
1786;DHT22;890;48.158;11.540;2022-12-29T13:18:23;14.40;43.90
1786;DHT22;890;48.158;11.540;2022-12-29T13:23:48;14.40;44.50
1786;DHT22;890;48.158;11.540;2022-12-29T13:26:20;14.50;44.60
1786;DHT22;890;48.158;11.540;2022-12-29T13:29:18;14.50;44.70
1786;DHT22;890;48.158;11.540;2022-12-29T13:34:45;14.40;44.90
1786;DHT22;890;48.158;11.540;2022-12-29T13:37:16;14.40;45.20
1786;DHT22;890;48.158;11.540;2022-12-29T13:39:59;14.40;45.20
1786;DHT22;890;48.158;11.540;2022-12-29T13:42:26;14.30;45.60
1786;DHT22;890;48.158;11.540;2022-12-29T13:45:02;14.40;45.60
1786;DHT22;890;48.158;11.540;2022-12-29T13:48:03;14.30;46.00
1786;DHT22;890;48.158;11.540;2022-12-29T13:50:35;14.20;46.80
1786;DHT22;890;48.158;11.540;2022-12-29T13:53:11;14.20;46.10
1786;DHT22;890;48.158;11.540;2022-12-29T13:55:54;14.10;46.40
1786;DHT22;890;48.158;11.540;2022-12-29T14:03:50;14.00;46.90
1786;DHT22;890;48.158;11.540;2022-12-29T14:06:24;14.00;47.20
1786;DHT22;890;48.158;11.540;2022-12-29T14:08:56;14.10;47.30
1786;DHT22;890;48.158;11.540;2022-12-29T14:11:28;14.10;47.30
1786;DHT22;890;48.158;11.540;2022-12-29T14:13:55;14.00;47.40
1786;DHT22;890;48.158;11.540;2022-12-29T14:16:34;14.00;47.70
1786;DHT22;890;48.158;11.540;2022-12-29T14:19:09;13.90;48.00
1786;DHT22;890;48.158;11.540;2022-12-29T14:21:36;13.90;48.10
1786;DHT22;890;48.158;11.540;2022-12-29T14:24:44;14.00;48.20
1786;DHT22;890;48.158;11.540;2022-12-29T14:34:47;13.80;49.10
1786;DHT22;890;48.158;11.540;2022-12-29T14:37:30;13.80;49.10
1786;DHT22;890;48.158;11.540;2022-12-29T14:40:23;13.70;49.40
1786;DHT22;890;48.158;11.540;2022-12-29T14:42:52;13.70;49.60
1786;DHT22;890;48.158;11.540;2022-12-29T14:47:48;13.60;49.70
1786;DHT22;890;48.158;11.540;2022-12-29T14:50:16;13.60;50.00
1786;DHT22;890;48.158;11.540;2022-12-29T14:52:47;13.60;50.00
1786;DHT22;890;48.158;11.540;2022-12-29T14:57:45;13.60;50.40
1786;DHT22;890;48.158;11.540;2022-12-29T15:02:49;13.70;50.60
1786;DHT22;890;48.158;11.540;2022-12-29T15:07:59;13.50;50.30
1786;DHT22;890;48.158;11.540;2022-12-29T15:10:34;13.40;49.80
1786;DHT22;890;48.158;11.540;2022-12-29T15:13:04;13.30;49.70
1786;DHT22;890;48.158;11.540;2022-12-29T15:15:37;13.20;49.50
1786;DHT22;890;48.158;11.540;2022-12-29T15:18:22;13.10;49.40
1786;DHT22;890;48.158;11.540;2022-12-29T15:20:53;13.00;49.70
1786;DHT22;890;48.158;11.540;2022-12-29T15:23:19;13.00;49.00
1786;DHT22;890;48.158;11.540;2022-12-29T15:25:55;12.90;49.30
1786;DHT22;890;48.158;11.540;2022-12-29T15:28:22;12.80;48.50
1786;DHT22;890;48.158;11.540;2022-12-29T15:31:02;12.80;48.60
1786;DHT22;890;48.158;11.540;2022-12-29T15:33:28;12.70;48.40
1786;DHT22;890;48.158;11.540;2022-12-29T15:35:56;12.70;48.50
1786;DHT22;890;48.158;11.540;2022-12-29T15:38:31;12.60;48.40
1786;DHT22;890;48.158;11.540;2022-12-29T15:41:06;12.60;48.40
1786;DHT22;890;48.158;11.540;2022-12-29T15:46:04;12.50;48.50
1786;DHT22;890;48.158;11.540;2022-12-29T15:48:30;12.60;48.60
1786;DHT22;890;48.158;11.540;2022-12-29T15:50:57;12.50;48.50
1786;DHT22;890;48.158;11.540;2022-12-29T15:53:31;12.50;48.60
1786;DHT22;890;48.158;11.540;2022-12-29T15:56:05;12.30;48.60
1786;DHT22;890;48.158;11.540;2022-12-29T15:58:40;12.50;48.70
1786;DHT22;890;48.158;11.540;2022-12-29T16:03:47;12.40;48.80
1786;DHT22;890;48.158;11.540;2022-12-29T16:06:33;12.30;48.70
1786;DHT22;890;48.158;11.540;2022-12-29T16:14:01;12.20;49.00
1786;DHT22;890;48.158;11.540;2022-12-29T16:16:35;12.30;49.20
1786;DHT22;890;48.158;11.540;2022-12-29T16:19:05;12.40;49.30
1786;DHT22;890;48.158;11.540;2022-12-29T16:21:35;12.20;49.20
1786;DHT22;890;48.158;11.540;2022-12-29T16:24:13;12.20;49.40
1786;DHT22;890;48.158;11.540;2022-12-29T16:26:39;12.10;49.60
1786;DHT22;890;48.158;11.540;2022-12-29T16:29:12;12.10;50.10
1786;DHT22;890;48.158;11.540;2022-12-29T16:31:55;12.00;49.60
1786;DHT22;890;48.158;11.540;2022-12-29T16:34:42;12.00;49.90
1786;DHT22;890;48.158;11.540;2022-12-29T16:37:34;12.00;50.10
1786;DHT22;890;48.158;11.540;2022-12-29T16:40:37;12.00;50.60
1786;DHT22;890;48.158;11.540;2022-12-29T16:43:04;12.00;50.90
1786;DHT22;890;48.158;11.540;2022-12-29T16:50:40;12.00;51.50
1786;DHT22;890;48.158;11.540;2022-12-29T16:53:26;12.00;51.80
1786;DHT22;890;48.158;11.540;2022-12-29T16:55:53;12.00;51.90
1786;DHT22;890;48.158;11.540;2022-12-29T16:58:23;12.00;51.90
1786;DHT22;890;48.158;11.540;2022-12-29T17:00:52;12.00;52.10
1786;DHT22;890;48.158;11.540;2022-12-29T17:03:20;12.00;52.00
1786;DHT22;890;48.158;11.540;2022-12-29T17:05:45;12.00;52.10
1786;DHT22;890;48.158;11.540;2022-12-29T17:08:20;12.00;52.10
1786;DHT22;890;48.158;11.540;2022-12-29T17:10:52;11.80;52.40
1786;DHT22;890;48.158;11.540;2022-12-29T17:13:38;12.50;53.10
1786;DHT22;890;48.158;11.540;2022-12-29T17:16:07;11.80;52.80
1786;DHT22;890;48.158;11.540;2022-12-29T17:18:34;11.80;53.00
1786;DHT22;890;48.158;11.540;2022-12-29T17:21:00;11.80;53.20
1786;DHT22;890;48.158;11.540;2022-12-29T17:23:26;11.80;53.30
1786;DHT22;890;48.158;11.540;2022-12-29T17:25:53;11.90;53.40
1786;DHT22;890;48.158;11.540;2022-12-29T17:28:20;11.90;53.70
1786;DHT22;890;48.158;11.540;2022-12-29T17:30:46;11.80;53.50
1786;DHT22;890;48.158;11.540;2022-12-29T17:33:16;11.90;53.30
1786;DHT22;890;48.158;11.540;2022-12-29T17:35:42;11.90;53.80
1786;DHT22;890;48.158;11.540;2022-12-29T17:38:17;11.90;53.90
1786;DHT22;890;48.158;11.540;2022-12-29T17:40:43;11.80;54.20
1786;DHT22;890;48.158;11.540;2022-12-29T17:43:12;11.80;54.20
1786;DHT22;890;48.158;11.540;2022-12-29T17:45:39;11.80;54.30
1786;DHT22;890;48.158;11.540;2022-12-29T17:48:13;11.80;54.40
1786;DHT22;890;48.158;11.540;2022-12-29T17:50:39;11.80;54.70
1786;DHT22;890;48.158;11.540;2022-12-29T17:53:09;11.80;54.70
1786;DHT22;890;48.158;11.540;2022-12-29T17:55:35;11.70;54.80
1786;DHT22;890;48.158;11.540;2022-12-29T17:58:01;11.80;55.00
1786;DHT22;890;48.158;11.540;2022-12-29T18:00:29;11.80;55.10
1786;DHT22;890;48.158;11.540;2022-12-29T18:02:56;11.80;55.30
1786;DHT22;890;48.158;11.540;2022-12-29T18:05:27;11.90;55.40
1786;DHT22;890;48.158;11.540;2022-12-29T18:07:55;11.80;55.40
1786;DHT22;890;48.158;11.540;2022-12-29T18:10:22;11.90;55.50
1786;DHT22;890;48.158;11.540;2022-12-29T18:12:50;11.80;55.40
1786;DHT22;890;48.158;11.540;2022-12-29T18:15:22;11.80;55.60
1786;DHT22;890;48.158;11.540;2022-12-29T18:17:49;11.70;55.50
1786;DHT22;890;48.158;11.540;2022-12-29T18:20:18;11.80;55.50
1786;DHT22;890;48.158;11.540;2022-12-29T18:22:43;11.80;55.40
1786;DHT22;890;48.158;11.540;2022-12-29T18:25:34;11.80;55.40
1786;DHT22;890;48.158;11.540;2022-12-29T18:28:01;11.60;55.10
1786;DHT22;890;48.158;11.540;2022-12-29T18:30:26;11.70;55.10
1786;DHT22;890;48.158;11.540;2022-12-29T18:32:52;11.60;55.00
1786;DHT22;890;48.158;11.540;2022-12-29T18:35:36;11.70;55.00
1786;DHT22;890;48.158;11.540;2022-12-29T18:38:02;11.60;55.10